Time;durP1;ratioP1;P1;durP2;ratioP2;P2;SDS_P1;SDS_P2;PMS_P1;PMS_P2;Temp;Humidity;BMP_temperature;BMP_pressure;BME280_temperature;BME280_humidity;BME280_pressure;Samples;Min_cycle;Max_cycle;Signal;HPM_P1;HPM_P2
2021/06/11 00:00:48;;;;;;;8.57;5.68;;;23.90;90.10;;;;;;5067387;28;20040;-48
2021/06/11 00:03:17;;;;;;;8.57;6.50;;;23.90;90.10;;;;;;5053374;28;20093;-49
2021/06/11 00:05:44;;;;;;;8.95;5.35;;;23.80;90.20;;;;;;5050369;28;20056;-49
2021/06/11 00:08:12;;;;;;;7.15;5.75;;;23.70;90.30;;;;;;5053806;28;20394;-47
2021/06/11 00:10:40;;;;;;;6.47;5.60;;;23.80;90.50;;;;;;5066353;28;20421;-46
2021/06/11 00:13:08;;;;;;;6.72;5.32;;;23.70;90.60;;;;;;5070345;28;20102;-48
2021/06/11 00:15:36;;;;;;;7.97;5.95;;;23.70;90.80;;;;;;5065663;28;20060;-47
2021/06/11 00:18:04;;;;;;;7.13;5.55;;;23.70;90.90;;;;;;5070644;28;20059;-47
2021/06/11 00:20:33;;;;;;;9.63;5.80;;;23.70;91.10;;;;;;5048507;28;20048;-46
2021/06/11 00:23:02;;;;;;;7.63;5.82;;;23.80;91.30;;;;;;5053718;28;20068;-47
2021/06/11 00:25:29;;;;;;;6.82;4.38;;;23.70;91.40;;;;;;5065338;28;20437;-48
2021/06/11 00:27:59;;;;;;;7.25;5.18;;;23.70;91.50;;;;;;5070610;28;20057;-48
2021/06/11 00:30:29;;;;;;;7.05;5.72;;;23.70;91.60;;;;;;5064630;28;20558;-48
2021/06/11 00:32:58;;;;;;;6.97;5.28;;;23.70;91.70;;;;;;5071586;28;20047;-47
2021/06/11 00:35:26;;;;;;;7.78;5.63;;;23.70;91.80;;;;;;5064859;28;20079;-47
2021/06/11 00:37:54;;;;;;;10.07;5.43;;;23.60;91.90;;;;;;5071336;28;20072;-47
2021/06/11 00:40:22;;;;;;;8.07;5.10;;;23.60;92.00;;;;;;5064759;28;20044;-53
2021/06/11 00:42:50;;;;;;;11.07;5.85;;;23.60;92.20;;;;;;5069880;28;20099;-47
2021/06/11 00:45:19;;;;;;;10.02;6.30;;;23.60;92.30;;;;;;5064779;28;20044;-47
2021/06/11 00:47:47;;;;;;;9.27;5.82;;;23.60;92.40;;;;;;5070392;28;20496;-47
2021/06/11 00:50:23;;;;;;;7.40;4.70;;;23.60;92.50;;;;;;5031681;28;20582;-51
2021/06/11 00:52:53;;;;;;;6.28;5.47;;;23.60;92.50;;;;;;5053533;28;20132;-47
2021/06/11 00:55:20;;;;;;;6.30;5.50;;;23.60;92.50;;;;;;5047749;28;20097;-48
2021/06/11 00:57:49;;;;;;;7.50;5.75;;;23.60;92.50;;;;;;5069748;28;20044;-47
2021/06/11 01:00:17;;;;;;;12.13;7.10;;;23.60;92.50;;;;;;5048128;28;20048;-46
2021/06/11 01:02:45;;;;;;;8.82;5.72;;;23.60;92.40;;;;;;5053110;28;20099;-48
2021/06/11 01:05:13;;;;;;;7.07;5.28;;;23.60;92.40;;;;;;5064157;28;20065;-46
2021/06/11 01:07:43;;;;;;;7.18;5.07;;;23.60;92.30;;;;;;5069487;28;20491;-48
2021/06/11 01:10:12;;;;;;;7.32;5.07;;;23.60;92.30;;;;;;5065652;28;20056;-46
2021/06/11 01:12:40;;;;;;;7.72;5.28;;;23.60;92.30;;;;;;5069658;28;20033;-47
2021/06/11 01:15:09;;;;;;;8.20;5.28;;;23.50;92.30;;;;;;5047381;28;20056;-47
2021/06/11 01:17:37;;;;;;;10.52;5.15;;;23.50;92.30;;;;;;5069394;28;20402;-47
2021/06/11 01:20:10;;;;;;;9.55;5.80;;;23.50;92.40;;;;;;5065352;28;20055;-46
2021/06/11 01:23:02;;;;;;;9.18;5.80;;;23.50;92.40;;;;;;5070302;28;20235;-47
2021/06/11 01:25:41;;;;;;;8.80;6.18;;;23.50;92.30;;;;;;5047481;28;20094;-47
2021/06/11 01:28:11;;;;;;;6.95;5.18;;;23.50;92.40;;;;;;5050194;28;20041;-46
2021/06/11 01:30:40;;;;;;;7.53;5.90;;;23.40;92.30;;;;;;5060577;28;20136;-47
2021/06/11 01:33:11;;;;;;;8.75;5.18;;;23.40;92.30;;;;;;5057594;28;20119;-47
2021/06/11 01:36:06;;;;;;;10.45;6.07;;;23.40;92.30;;;;;;5057335;28;20072;-46
2021/06/11 01:38:39;;;;;;;6.78;4.90;;;23.40;92.30;;;;;;5045544;28;20183;-47
2021/06/11 01:41:10;;;;;;;8.27;4.95;;;23.40;92.30;;;;;;5064049;28;20127;-48
2021/06/11 01:43:38;;;;;;;7.90;4.95;;;23.40;92.30;;;;;;5064270;28;20053;-47
2021/06/11 01:46:16;;;;;;;8.75;5.97;;;23.40;92.40;;;;;;5035262;28;20052;-46
2021/06/11 01:48:47;;;;;;;6.68;4.95;;;23.40;92.40;;;;;;5064879;28;20057;-54
2021/06/11 01:51:16;;;;;;;7.75;5.43;;;23.30;92.50;;;;;;5052680;28;20040;-50
2021/06/11 01:53:44;;;;;;;8.68;6.10;;;23.30;92.50;;;;;;5063870;28;20560;-46
2021/06/11 01:56:17;;;;;;;10.13;5.07;;;23.30;92.50;;;;;;5069023;28;20084;-47
2021/06/11 01:58:46;;;;;;;6.90;5.47;;;23.30;92.50;;;;;;5063288;28;20055;-50
2021/06/11 02:01:17;;;;;;;9.15;5.95;;;23.30;92.60;;;;;;5052471;28;20540;-46
2021/06/11 02:03:46;;;;;;;6.75;5.68;;;23.30;92.40;;;;;;5047151;28;20055;-46
2021/06/11 02:06:16;;;;;;;7.63;5.40;;;23.30;92.50;;;;;;5051726;28;20098;-46
2021/06/11 02:08:51;;;;;;;8.55;5.43;;;23.30;92.40;;;;;;5046987;28;20060;-56
2021/06/11 02:11:20;;;;;;;11.13;5.63;;;23.30;92.30;;;;;;5069451;28;20094;-48
2021/06/11 02:13:51;;;;;;;6.75;4.93;;;23.30;92.30;;;;;;5063127;28;20045;-46
2021/06/11 02:16:20;;;;;;;6.85;5.43;;;23.30;92.30;;;;;;5053173;28;20505;-46
2021/06/11 02:18:49;;;;;;;9.23;5.15;;;23.20;92.20;;;;;;5042654;28;20087;-45
2021/06/11 02:21:18;;;;;;;8.82;5.82;;;23.20;92.20;;;;;;5066112;28;20052;-47
2021/06/11 02:23:46;;;;;;;7.43;5.03;;;23.20;92.20;;;;;;5063141;28;20060;-50
2021/06/11 02:26:15;;;;;;;7.05;5.68;;;23.20;92.10;;;;;;5052345;28;20041;-45
2021/06/11 02:28:42;;;;;;;7.07;5.22;;;23.20;92.10;;;;;;5063761;28;20453;-48
2021/06/11 02:31:11;;;;;;;8.00;5.65;;;23.10;92.00;;;;;;5068362;28;20063;-46
2021/06/11 02:33:40;;;;;;;9.93;5.97;;;23.10;92.10;;;;;;5064038;28;20186;-47
2021/06/11 02:36:08;;;;;;;12.48;6.38;;;23.10;92.10;;;;;;5067605;28;20090;-47
2021/06/11 02:38:36;;;;;;;8.43;5.18;;;23.10;92.20;;;;;;5047821;28;20040;-47
2021/06/11 02:41:07;;;;;;;8.13;6.07;;;23.10;92.20;;;;;;5068103;28;20521;-46
2021/06/11 02:43:39;;;;;;;6.15;4.65;;;23.10;92.30;;;;;;5064695;28;20049;-46
2021/06/11 02:46:33;;;;;;;9.18;5.70;;;23.10;92.30;;;;;;5068820;28;20044;-47
2021/06/11 02:49:30;;;;;;;6.32;4.95;;;23.10;92.30;;;;;;5061549;28;20049;-46
2021/06/11 02:52:02;;;;;;;5.80;4.60;;;23.10;92.30;;;;;;5031849;28;20053;-46
2021/06/11 02:54:33;;;;;;;8.73;5.53;;;23.10;92.30;;;;;;5048904;28;20059;-46
2021/06/11 02:57:22;;;;;;;7.32;5.32;;;23.10;92.40;;;;;;5039192;28;20048;-46
2021/06/11 02:59:54;;;;;;;12.80;5.97;;;23.10;92.40;;;;;;5080207;28;20502;-45
2021/06/11 03:02:35;;;;;;;6.35;4.70;;;23.10;92.50;;;;;;5057567;28;20131;-46
2021/06/11 03:05:04;;;;;;;6.65;4.70;;;23.00;92.50;;;;;;5072872;28;20065;-46
2021/06/11 03:07:35;;;;;;;9.77;5.47;;;23.10;92.60;;;;;;5039661;28;20111;-46
2021/06/11 03:10:09;;;;;;;9.75;4.38;;;23.10;92.70;;;;;;5074583;28;20099;-46
2021/06/11 03:12:38;;;;;;;9.55;5.93;;;23.00;92.80;;;;;;5066744;28;20052;-47
2021/06/11 03:15:07;;;;;;;6.07;5.47;;;23.00;92.90;;;;;;5044741;28;20091;-46
2021/06/11 03:17:45;;;;;;;10.02;5.97;;;23.00;93.10;;;;;;5056149;28;20129;-46
2021/06/11 03:20:17;;;;;;;9.40;5.15;;;23.00;93.20;;;;;;5062303;28;20053;-46
2021/06/11 03:23:08;;;;;;;8.77;5.28;;;23.00;93.40;;;;;;5040833;28;20053;-47
2021/06/11 03:26:04;;;;;;;7.47;5.57;;;23.00;93.50;;;;;;5042066;28;20040;-47
2021/06/11 03:28:48;;;;;;;7.07;5.38;;;23.00;93.50;;;;;;5051789;28;20140;-46
2021/06/11 03:31:27;;;;;;;8.73;5.82;;;23.00;93.50;;;;;;5072310;28;20055;-48
2021/06/11 03:33:58;;;;;;;8.80;5.65;;;23.00;93.80;;;;;;5065252;28;20491;-46
2021/06/11 03:36:31;;;;;;;7.13;5.55;;;23.00;93.70;;;;;;5073156;28;20154;-48
2021/06/11 03:39:04;;;;;;;8.13;5.45;;;23.00;93.70;;;;;;5044241;28;20408;-46
2021/06/11 03:41:37;;;;;;;7.28;5.20;;;23.00;93.90;;;;;;5057512;28;20052;-48
2021/06/11 03:44:09;;;;;;;14.00;5.60;;;23.00;93.90;;;;;;5065920;28;20048;-46
2021/06/11 03:46:44;;;;;;;9.50;5.47;;;23.00;94.00;;;;;;5074392;28;20503;-48
2021/06/11 03:49:14;;;;;;;9.43;5.77;;;23.10;94.10;;;;;;5060727;28;20068;-50
2021/06/11 03:51:43;;;;;;;11.13;5.65;;;23.10;94.20;;;;;;5025084;28;20041;-51
2021/06/11 03:54:16;;;;;;;8.38;6.13;;;23.20;94.20;;;;;;5027344;28;20040;-48
2021/06/11 03:56:47;;;;;;;9.07;6.10;;;23.20;94.30;;;;;;5086347;28;20147;-49
2021/06/11 03:59:17;;;;;;;11.18;6.25;;;23.30;94.30;;;;;;5026110;28;20049;-46
2021/06/11 04:01:50;;;;;;;9.55;5.57;;;23.30;94.20;;;;;;5074420;28;20130;-47
2021/06/11 04:04:18;;;;;;;6.88;5.40;;;23.40;94.20;;;;;;5062749;28;20064;-51
2021/06/11 04:06:54;;;;;;;10.77;5.65;;;23.40;94.10;;;;;;5056633;28;20060;-49
2021/06/11 04:09:28;;;;;;;11.88;5.75;;;23.50;94.10;;;;;;5045652;28;20161;-48
2021/06/11 04:12:06;;;;;;;8.48;7.07;;;23.60;93.90;;;;;;5057875;28;20144;-47
2021/06/11 04:14:46;;;;;;;14.35;6.10;;;23.60;93.70;;;;;;5072158;28;20064;-49
2021/06/11 04:17:21;;;;;;;10.68;6.22;;;23.70;93.70;;;;;;5044022;28;20495;-48
2021/06/11 04:19:55;;;;;;;10.95;5.22;;;23.70;93.50;;;;;;5034154;28;20133;-46
2021/06/11 04:22:26;;;;;;;9.25;5.85;;;23.80;93.40;;;;;;5046644;28;20049;-47
2021/06/11 04:24:56;;;;;;;8.68;5.55;;;23.90;93.30;;;;;;5058303;28;20056;-46
2021/06/11 04:27:24;;;;;;;9.02;6.65;;;24.00;93.20;;;;;;5031210;28;20037;-49
2021/06/11 04:29:53;;;;;;;8.80;5.70;;;24.00;93.00;;;;;;5062537;28;20052;-47
2021/06/11 04:32:21;;;;;;;9.13;5.03;;;24.10;93.00;;;;;;5027391;28;20042;-48
2021/06/11 04:34:55;;;;;;;9.90;5.88;;;24.20;92.80;;;;;;5045144;28;20041;-48
2021/06/11 04:37:23;;;;;;;12.30;6.22;;;24.30;92.60;;;;;;5037397;28;20053;-46
2021/06/11 04:39:51;;;;;;;6.88;5.32;;;24.40;92.30;;;;;;5030346;28;20041;-48
2021/06/11 04:42:19;;;;;;;8.02;5.65;;;24.50;92.00;;;;;;5042668;28;20460;-47
2021/06/11 04:44:47;;;;;;;9.13;5.25;;;24.60;91.70;;;;;;5059362;28;20067;-46
2021/06/11 04:47:15;;;;;;;10.23;5.40;;;24.70;91.60;;;;;;5071209;28;20139;-48
2021/06/11 04:49:42;;;;;;;8.80;5.82;;;24.80;91.60;;;;;;5061078;28;20051;-49
2021/06/11 04:52:10;;;;;;;9.63;6.10;;;24.90;91.40;;;;;;5054955;28;20135;-48
2021/06/11 04:54:38;;;;;;;8.30;5.75;;;25.00;91.30;;;;;;5075349;28;20041;-48
2021/06/11 04:57:06;;;;;;;6.40;5.25;;;25.10;91.10;;;;;;5048592;28;20057;-49
2021/06/11 04:59:34;;;;;;;7.82;5.63;;;25.10;91.00;;;;;;5076677;28;20053;-46
2021/06/11 05:02:02;;;;;;;9.18;4.90;;;25.10;91.00;;;;;;5073578;28;20045;-46
2021/06/11 05:04:29;;;;;;;6.30;5.47;;;25.10;90.80;;;;;;5060926;28;20053;-46
2021/06/11 05:06:59;;;;;;;9.60;5.88;;;25.20;90.70;;;;;;5072940;28;20055;-46
2021/06/11 05:09:27;;;;;;;7.65;4.60;;;25.30;90.60;;;;;;5060583;28;20048;-47
2021/06/11 05:11:55;;;;;;;7.85;5.07;;;25.30;90.60;;;;;;5040277;28;20136;-46
2021/06/11 05:14:23;;;;;;;7.72;5.05;;;25.40;90.40;;;;;;5060890;28;20045;-48
2021/06/11 05:16:50;;;;;;;6.88;4.63;;;25.40;90.20;;;;;;5072700;28;20051;-50
2021/06/11 05:19:18;;;;;;;8.05;4.97;;;25.50;90.10;;;;;;5060715;28;20053;-47
2021/06/11 05:21:46;;;;;;;7.53;4.93;;;25.50;90.00;;;;;;5072813;28;20498;-49
2021/06/11 05:24:13;;;;;;;7.32;4.95;;;25.60;90.00;;;;;;5060100;28;20055;-46
2021/06/11 05:26:41;;;;;;;7.65;5.78;;;25.60;89.80;;;;;;5089906;28;20113;-47
2021/06/11 05:29:09;;;;;;;6.35;5.05;;;25.80;89.70;;;;;;5062374;28;20070;-46
2021/06/11 05:31:37;;;;;;;6.93;4.55;;;25.80;89.40;;;;;;5072825;28;20048;-46
2021/06/11 05:34:04;;;;;;;7.65;4.88;;;25.90;89.30;;;;;;5061593;28;20044;-48
2021/06/11 05:36:32;;;;;;;5.50;4.53;;;26.10;89.30;;;;;;5054536;28;20053;-50
2021/06/11 05:39:00;;;;;;;6.95;4.70;;;26.20;89.00;;;;;;5062076;28;20044;-47
2021/06/11 05:41:27;;;;;;;6.93;4.53;;;26.30;88.80;;;;;;5071417;28;20056;-46
2021/06/11 05:43:55;;;;;;;6.63;4.38;;;26.30;88.20;;;;;;5062752;28;20047;-47
2021/06/11 05:46:25;;;;;;;7.00;4.22;;;26.40;88.20;;;;;;5054358;28;20047;-47
2021/06/11 05:48:53;;;;;;;9.82;5.35;;;26.50;87.80;;;;;;5046391;28;20052;-47
2021/06/11 05:51:20;;;;;;;8.52;4.28;;;26.60;87.60;;;;;;5069726;28;20052;-48
2021/06/11 05:53:48;;;;;;;12.05;5.82;;;26.70;87.40;;;;;;5042768;28;20050;-48
2021/06/11 05:56:16;;;;;;;7.80;4.57;;;26.90;87.00;;;;;;5066428;28;20044;-48
2021/06/11 05:58:45;;;;;;;7.18;4.13;;;27.00;86.40;;;;;;5064978;28;20060;-47
2021/06/11 06:01:13;;;;;;;6.05;4.20;;;27.10;86.00;;;;;;5051867;28;20045;-48
2021/06/11 06:03:41;;;;;;;5.75;4.03;;;27.30;85.90;;;;;;5064600;28;20076;-47
2021/06/11 06:06:09;;;;;;;4.57;3.70;;;27.30;85.20;;;;;;5067427;28;20068;-46
2021/06/11 06:08:36;;;;;;;7.97;4.32;;;27.30;84.80;;;;;;5064147;28;20064;-48
2021/06/11 06:11:04;;;;;;;8.35;4.03;;;27.50;84.70;;;;;;5050731;28;20052;-49
2021/06/11 06:13:31;;;;;;;6.25;4.05;;;27.50;84.50;;;;;;5065121;28;20079;-47
2021/06/11 06:15:59;;;;;;;8.75;4.45;;;27.70;84.40;;;;;;5068141;28;20052;-46
2021/06/11 06:18:27;;;;;;;6.07;4.22;;;27.80;84.10;;;;;;5067495;28;20048;-47
2021/06/11 06:20:54;;;;;;;6.70;4.13;;;27.90;83.80;;;;;;5065889;28;20379;-48
2021/06/11 06:23:22;;;;;;;5.30;4.35;;;27.90;83.40;;;;;;5083182;28;20053;-50
2021/06/11 06:25:50;;;;;;;8.25;3.85;;;27.90;82.90;;;;;;5065595;28;20049;-47
2021/06/11 06:28:18;;;;;;;7.40;4.53;;;28.00;82.80;;;;;;5067620;28;20048;-46
2021/06/11 06:30:45;;;;;;;6.78;4.03;;;28.10;82.40;;;;;;5064712;28;20055;-47
2021/06/11 06:33:13;;;;;;;6.68;4.50;;;28.20;82.30;;;;;;5067507;28;20040;-47
2021/06/11 06:35:41;;;;;;;6.55;4.05;;;28.20;81.80;;;;;;5065441;28;20040;-46
2021/06/11 06:38:10;;;;;;;5.93;3.95;;;28.40;81.70;;;;;;5068323;28;20483;-47
2021/06/11 06:40:43;;;;;;;6.50;4.25;;;28.50;80.90;;;;;;5031441;28;20072;-48
2021/06/11 06:43:12;;;;;;;7.65;4.75;;;28.60;80.60;;;;;;5067832;28;20048;-46
2021/06/11 06:45:40;;;;;;;6.43;3.78;;;28.70;80.50;;;;;;5062937;28;20055;-46
2021/06/11 06:48:08;;;;;;;5.97;3.45;;;28.70;80.30;;;;;;5067867;28;20048;-47
2021/06/11 06:50:36;;;;;;;6.40;3.67;;;28.80;80.10;;;;;;5015430;28;20041;-46
2021/06/11 06:53:05;;;;;;;7.18;4.63;;;28.70;79.00;;;;;;5035438;28;20550;-47
2021/06/11 06:55:32;;;;;;;8.93;4.15;;;28.50;79.50;;;;;;5062508;28;20040;-46
2021/06/11 06:58:00;;;;;;;6.88;4.13;;;28.60;79.70;;;;;;5068993;28;20044;-46
2021/06/11 07:00:28;;;;;;;6.75;4.05;;;28.70;79.70;;;;;;5062049;28;20048;-47
2021/06/11 07:02:56;;;;;;;5.00;3.30;;;28.90;78.90;;;;;;5067675;28;20793;-46
2021/06/11 07:05:24;;;;;;;6.40;3.65;;;28.80;78.60;;;;;;5045787;28;20057;-49
2021/06/11 07:07:52;;;;;;;4.25;3.85;;;28.70;79.20;;;;;;5068189;28;20049;-50
2021/06/11 07:10:20;;;;;;;6.70;3.55;;;28.80;79.70;;;;;;5062206;28;20051;-47
2021/06/11 07:12:48;;;;;;;6.85;4.10;;;28.80;79.60;;;;;;5050928;28;20075;-49
2021/06/11 07:15:16;;;;;;;5.72;4.10;;;28.80;78.90;;;;;;5062900;28;20101;-47
2021/06/11 07:17:43;;;;;;;7.50;3.90;;;28.80;79.00;;;;;;5067695;28;20041;-46
2021/06/11 07:20:11;;;;;;;7.45;3.80;;;29.00;78.70;;;;;;5062112;28;20399;-52
2021/06/11 07:22:39;;;;;;;6.60;3.78;;;29.20;78.30;;;;;;5067262;28;20102;-49
2021/06/11 07:25:08;;;;;;;6.30;4.07;;;29.30;78.20;;;;;;5061673;28;20049;-53
2021/06/11 07:27:35;;;;;;;4.88;3.95;;;29.50;77.90;;;;;;5068444;28;20056;-50
2021/06/11 07:30:05;;;;;;;8.93;4.30;;;29.70;77.70;;;;;;5051715;28;20060;-47
2021/06/11 07:32:42;;;;;;;7.18;4.05;;;29.80;77.40;;;;;;5020957;28;20044;-46
2021/06/11 07:35:11;;;;;;;4.85;3.92;;;29.80;76.50;;;;;;5062310;28;20383;-47
2021/06/11 07:37:40;;;;;;;7.28;4.20;;;29.90;76.30;;;;;;5066954;28;20398;-49
2021/06/11 07:40:10;;;;;;;8.73;4.07;;;30.00;76.80;;;;;;5045117;28;20083;-48
2021/06/11 07:42:38;;;;;;;5.82;3.60;;;30.10;77.00;;;;;;5087509;28;20487;-47
2021/06/11 07:45:08;;;;;;;7.45;3.90;;;30.20;76.80;;;;;;5048847;28;20053;-47
2021/06/11 07:47:36;;;;;;;5.05;3.88;;;30.30;76.30;;;;;;5070880;28;20438;-49
2021/06/11 07:50:06;;;;;;;6.45;4.22;;;30.20;76.00;;;;;;5072022;28;20380;-51
2021/06/11 07:52:36;;;;;;;9.32;4.10;;;30.00;76.40;;;;;;5054516;28;20778;-50
2021/06/11 07:55:05;;;;;;;5.80;3.55;;;29.70;77.00;;;;;;5059738;28;20522;-46
2021/06/11 07:57:34;;;;;;;7.20;3.88;;;29.50;76.50;;;;;;5056288;28;20158;-47
2021/06/11 08:00:04;;;;;;;4.05;3.25;;;29.00;77.20;;;;;;5038897;28;20045;-46
2021/06/11 08:02:40;;;;;;;4.85;3.70;;;28.80;77.60;;;;;;5041370;28;20075;-50
2021/06/11 08:05:12;;;;;;;4.60;3.78;;;28.70;78.10;;;;;;5064443;28;20060;-47
2021/06/11 08:07:40;;;;;;;6.00;4.70;;;28.40;78.20;;;;;;5069885;28;20072;-49
2021/06/11 08:10:08;;;;;;;6.00;3.85;;;28.30;78.30;;;;;;5066493;28;20048;-46
2021/06/11 08:12:36;;;;;;;5.00;3.75;;;28.40;77.80;;;;;;5070448;28;20036;-48
2021/06/11 08:15:06;;;;;;;5.47;4.05;;;28.60;78.70;;;;;;5064875;28;20074;-48
2021/06/11 08:17:34;;;;;;;5.95;4.25;;;28.90;78.50;;;;;;5071582;28;20532;-46
2021/06/11 08:20:05;;;;;;;6.18;3.55;;;29.20;78.40;;;;;;5061977;28;20049;-48
2021/06/11 08:22:33;;;;;;;5.47;3.80;;;29.40;78.20;;;;;;5054451;28;20079;-47
2021/06/11 08:25:01;;;;;;;4.80;3.70;;;29.70;77.30;;;;;;5064254;28;20048;-47
2021/06/11 08:27:28;;;;;;;7.03;3.95;;;29.90;77.00;;;;;;5070916;28;20092;-47
2021/06/11 08:29:56;;;;;;;7.88;3.90;;;30.00;76.60;;;;;;5047745;28;20502;-46
2021/06/11 08:32:24;;;;;;;5.22;3.85;;;29.90;77.20;;;;;;5071469;28;20040;-47
2021/06/11 08:34:51;;;;;;;8.93;4.05;;;29.90;76.50;;;;;;5063919;28;20071;-46
2021/06/11 08:37:23;;;;;;;11.20;4.55;;;30.10;76.60;;;;;;5055364;28;20075;-48
2021/06/11 08:39:55;;;;;;;7.45;4.10;;;30.20;76.90;;;;;;5062978;28;20410;-46
2021/06/11 08:42:30;;;;;;;6.53;4.15;;;30.30;75.90;;;;;;5071794;28;20049;-47
2021/06/11 08:45:07;;;;;;;6.13;4.32;;;30.50;75.40;;;;;;5047406;28;20447;-47
2021/06/11 08:47:37;;;;;;;7.32;4.13;;;30.40;75.70;;;;;;5070977;28;20049;-47
2021/06/11 08:50:06;;;;;;;7.13;4.05;;;30.20;75.00;;;;;;5058552;28;20123;-47
2021/06/11 08:52:33;;;;;;;8.63;4.15;;;29.90;75.60;;;;;;5020571;28;20041;-49
2021/06/11 08:55:02;;;;;;;6.13;4.13;;;29.50;76.90;;;;;;5045593;28;20041;-51
2021/06/11 08:57:29;;;;;;;6.80;4.30;;;29.30;77.80;;;;;;5053568;28;20123;-46
2021/06/11 08:59:57;;;;;;;6.22;3.90;;;29.10;78.20;;;;;;5046785;28;20482;-47
2021/06/11 09:02:25;;;;;;;6.35;4.28;;;28.90;78.20;;;;;;5071095;28;20049;-47
2021/06/11 09:04:55;;;;;;;7.25;4.75;;;28.80;77.90;;;;;;5045934;28;20048;-47
2021/06/11 09:07:28;;;;;;;7.05;3.88;;;28.70;78.50;;;;;;5072259;28;20053;-49
2021/06/11 09:10:00;;;;;;;8.48;5.15;;;28.80;78.50;;;;;;5062834;28;20048;-47
2021/06/11 09:12:33;;;;;;;11.43;5.18;;;28.70;78.40;;;;;;5070133;28;20076;-48
2021/06/11 09:15:18;;;;;;;5.47;4.20;;;28.70;79.00;;;;;;5079677;28;20059;-48
2021/06/11 09:17:52;;;;;;;8.52;4.45;;;28.60;78.40;;;;;;5085995;28;20056;-47
2021/06/11 09:20:26;;;;;;;4.82;3.33;;;28.60;78.00;;;;;;5047020;28;20074;-47
2021/06/11 09:22:59;;;;;;;11.52;4.05;;;28.80;77.70;;;;;;5034601;28;20045;-47
2021/06/11 09:25:41;;;;;;;6.18;3.97;;;29.10;77.40;;;;;;5065132;28;20052;-47
2021/06/11 09:28:14;;;;;;;6.47;4.28;;;29.30;76.20;;;;;;5070158;28;20082;-47
2021/06/11 09:30:53;;;;;;;6.97;4.13;;;29.50;76.20;;;;;;5066583;28;20135;-46
2021/06/11 09:33:23;;;;;;;5.78;4.50;;;29.70;75.80;;;;;;5050555;28;20364;-46
2021/06/11 09:35:54;;;;;;;6.05;4.53;;;29.80;76.70;;;;;;5067281;28;20135;-46
2021/06/11 09:38:28;;;;;;;4.60;3.80;;;29.80;76.60;;;;;;5067875;28;20059;-47
2021/06/11 09:40:59;;;;;;;6.75;4.25;;;29.90;75.90;;;;;;5033250;28;20048;-47
2021/06/11 09:43:28;;;;;;;6.88;4.32;;;30.00;74.60;;;;;;5066195;28;20127;-48
2021/06/11 09:46:12;;;;;;;6.15;3.85;;;30.10;75.10;;;;;;5033087;28;20047;-47
2021/06/11 09:48:40;;;;;;;5.97;4.18;;;30.20;73.90;;;;;;5081029;28;20045;-47
2021/06/11 09:51:18;;;;;;;4.40;3.35;;;30.20;73.80;;;;;;5051113;28;20052;-54
2021/06/11 09:53:46;;;;;;;5.68;4.38;;;30.30;73.50;;;;;;5062950;28;20158;-47
2021/06/11 09:56:28;;;;;;;7.78;4.50;;;30.30;73.60;;;;;;5068925;28;20052;-46
2021/06/11 09:58:58;;;;;;;7.03;4.00;;;30.30;74.40;;;;;;5061448;28;20048;-47
2021/06/11 10:01:26;;;;;;;6.80;4.47;;;30.30;75.10;;;;;;5053559;28;20087;-50
2021/06/11 10:03:56;;;;;;;5.78;4.57;;;30.30;75.50;;;;;;5061292;28;20463;-49
2021/06/11 10:06:27;;;;;;;6.68;4.22;;;30.30;74.20;;;;;;5069442;28;20490;-47
2021/06/11 10:08:55;;;;;;;5.18;4.07;;;30.40;74.20;;;;;;5045269;28;20045;-47
2021/06/11 10:11:25;;;;;;;5.10;3.50;;;30.30;72.90;;;;;;5053212;28;20506;-49
2021/06/11 10:13:54;;;;;;;5.45;4.38;;;30.30;72.60;;;;;;5061764;28;20136;-47
2021/06/11 10:16:23;;;;;;;5.28;4.30;;;30.30;71.80;;;;;;5052800;28;20049;-47
2021/06/11 10:18:51;;;;;;;6.95;4.97;;;30.40;71.00;;;;;;5042072;28;20487;-47
2021/06/11 10:21:18;;;;;;;6.95;4.80;;;30.30;72.90;;;;;;5065987;28;20045;-47
2021/06/11 10:23:46;;;;;;;6.20;4.20;;;30.40;73.20;;;;;;5063765;28;20110;-46
2021/06/11 10:26:14;;;;;;;7.07;4.82;;;30.40;73.30;;;;;;5068360;28;20049;-47
2021/06/11 10:28:43;;;;;;;6.50;3.90;;;30.40;73.40;;;;;;5064722;28;20067;-47
2021/06/11 10:31:14;;;;;;;6.43;3.78;;;30.40;74.00;;;;;;5067893;28;20475;-49
2021/06/11 10:33:43;;;;;;;10.40;4.40;;;30.40;73.10;;;;;;5063110;28;20060;-47
2021/06/11 10:36:47;;;;;;;7.10;4.53;;;30.40;73.10;;;;;;5068769;28;20053;-49
2021/06/11 10:39:20;;;;;;;9.70;3.90;;;30.50;72.30;;;;;;5039231;28;20163;-50
2021/06/11 10:42:03;;;;;;;6.10;4.30;;;30.50;69.80;;;;;;5054981;28;20498;-46
2021/06/11 10:44:40;;;;;;;5.90;4.68;;;30.50;70.30;;;;;;5060433;28;20399;-47
2021/06/11 10:47:17;;;;;;;6.25;3.90;;;30.40;72.10;;;;;;5070786;28;20491;-53
2021/06/11 10:49:58;;;;;;;6.28;4.45;;;30.30;73.50;;;;;;5043524;28;20059;-52
2021/06/11 10:52:36;;;;;;;7.15;5.25;;;30.30;73.90;;;;;;5052746;28;20472;-46
2021/06/11 10:55:19;;;;;;;6.60;5.32;;;30.30;74.20;;;;;;5069186;28;20488;-48
2021/06/11 10:57:52;;;;;;;5.38;4.45;;;30.20;74.30;;;;;;5039435;28;20049;-47
2021/06/11 11:00:31;;;;;;;5.75;4.13;;;30.30;73.90;;;;;;5062331;28;20055;-47
2021/06/11 11:03:01;;;;;;;8.30;4.60;;;30.10;74.40;;;;;;5051110;28;20037;-48
2021/06/11 11:05:41;;;;;;;9.15;4.50;;;30.10;75.20;;;;;;5045301;28;20493;-46
2021/06/11 11:08:10;;;;;;;5.50;4.88;;;30.10;74.60;;;;;;5067356;28;20094;-46
2021/06/11 11:10:51;;;;;;;9.30;4.63;;;30.20;74.50;;;;;;5038294;28;20097;-48
2021/06/11 11:13:27;;;;;;;7.63;5.43;;;30.10;74.90;;;;;;5067505;28;20068;-51
2021/06/11 11:15:57;;;;;;;5.95;5.32;;;30.20;75.40;;;;;;5069439;28;20052;-52
2021/06/11 11:18:51;;;;;;;8.90;4.57;;;30.10;74.70;;;;;;5069138;28;20060;-48
2021/06/11 11:21:29;;;;;;;7.25;5.07;;;30.00;74.70;;;;;;5069546;28;20072;-50
2021/06/11 11:24:12;;;;;;;5.20;4.07;;;30.10;74.60;;;;;;5065634;28;20053;-48
2021/06/11 11:26:43;;;;;;;9.20;5.20;;;29.90;74.90;;;;;;5051257;28;20128;-48
2021/06/11 11:29:12;;;;;;;5.50;4.55;;;29.70;76.50;;;;;;5057367;28;20047;-48
2021/06/11 11:31:42;;;;;;;9.70;4.75;;;29.70;76.80;;;;;;5034898;28;20060;-51
2021/06/11 11:34:10;;;;;;;6.85;4.32;;;29.50;76.20;;;;;;5058543;28;20045;-51
2021/06/11 11:36:38;;;;;;;7.22;4.68;;;29.60;77.30;;;;;;5034434;28;20077;-47
2021/06/11 11:39:08;;;;;;;8.02;5.18;;;29.70;76.90;;;;;;5023165;28;20049;-48
2021/06/11 11:41:37;;;;;;;7.82;4.32;;;29.70;77.00;;;;;;5091155;28;20067;-47
2021/06/11 11:44:05;;;;;;;8.77;5.32;;;29.80;77.20;;;;;;5026267;28;20500;-46
2021/06/11 11:46:47;;;;;;;7.55;4.97;;;29.70;77.80;;;;;;5024995;28;20067;-46
2021/06/11 11:49:15;;;;;;;7.32;4.78;;;29.60;77.90;;;;;;5065462;28;20094;-49
2021/06/11 11:51:44;;;;;;;6.90;5.53;;;29.70;79.50;;;;;;5040682;28;20052;-47
2021/06/11 11:54:11;;;;;;;6.60;5.07;;;29.70;78.10;;;;;;5081502;28;20055;-46
2021/06/11 11:56:39;;;;;;;6.65;5.03;;;29.70;78.20;;;;;;5034249;28;20146;-46
2021/06/11 11:59:07;;;;;;;7.53;4.55;;;29.70;78.10;;;;;;5055966;28;20407;-46
2021/06/11 12:01:40;;;;;;;6.22;4.60;;;29.70;77.60;;;;;;5072274;28;20049;-46
2021/06/11 12:04:08;;;;;;;9.35;4.97;;;29.60;77.00;;;;;;5061405;28;20068;-47
2021/06/11 12:06:36;;;;;;;6.97;4.55;;;29.50;77.60;;;;;;5047332;28;20525;-46
2021/06/11 12:09:04;;;;;;;7.78;4.82;;;29.40;77.70;;;;;;5058690;28;20411;-50
2021/06/11 12:11:32;;;;;;;6.35;4.80;;;29.40;77.90;;;;;;5051984;28;20052;-48
2021/06/11 12:14:00;;;;;;;6.53;4.75;;;29.40;77.40;;;;;;5059190;28;20044;-46
2021/06/11 12:16:29;;;;;;;8.82;5.00;;;29.40;77.70;;;;;;5039653;28;20077;-48
2021/06/11 12:18:58;;;;;;;8.30;4.22;;;29.40;77.50;;;;;;5060395;28;20047;-47
2021/06/11 12:21:26;;;;;;;6.18;4.20;;;29.50;76.50;;;;;;5042293;28;20068;-51
2021/06/11 12:23:54;;;;;;;5.15;3.88;;;29.40;76.20;;;;;;5049376;28;20045;-46
2021/06/11 12:26:22;;;;;;;4.70;4.00;;;29.50;76.40;;;;;;5060428;28;20057;-47
2021/06/11 12:28:49;;;;;;;6.50;5.05;;;29.50;76.50;;;;;;5055600;28;20126;-46
2021/06/11 12:31:17;;;;;;;6.07;4.47;;;29.60;76.00;;;;;;5069114;28;20170;-45
2021/06/11 12:33:45;;;;;;;8.02;4.25;;;29.50;75.50;;;;;;5044898;28;20049;-51
2021/06/11 12:36:14;;;;;;;5.53;4.32;;;29.50;75.30;;;;;;5040233;28;20060;-49
2021/06/11 12:38:42;;;;;;;8.07;5.03;;;29.50;74.90;;;;;;5059347;28;20049;-50
2021/06/11 12:41:12;;;;;;;6.38;4.40;;;29.50;74.70;;;;;;5053828;28;20501;-47
2021/06/11 12:46:27;;;;;;;7.63;3.78;;;29.50;74.70;;;;;;5034856;28;20057;-48
2021/06/11 12:48:56;;;;;;;6.25;4.55;;;29.50;73.90;;;;;;5025008;28;20044;-47
2021/06/11 12:51:25;;;;;;;9.70;4.53;;;29.50;73.70;;;;;;5049703;28;20044;-47
2021/06/11 12:53:53;;;;;;;5.68;4.28;;;29.60;73.60;;;;;;5045988;28;20076;-51
2021/06/11 12:56:21;;;;;;;6.25;3.50;;;29.60;73.10;;;;;;5070845;28;20127;-50
2021/06/11 12:58:49;;;;;;;7.22;3.97;;;29.60;73.30;;;;;;5068963;28;20044;-46
2021/06/11 13:01:16;;;;;;;7.43;4.75;;;29.60;73.30;;;;;;5056914;28;20056;-46
2021/06/11 13:03:44;;;;;;;6.78;4.60;;;29.60;73.70;;;;;;5058601;28;20470;-52
2021/06/11 13:06:12;;;;;;;7.25;5.00;;;29.60;74.00;;;;;;5052458;28;20056;-48